createdAt,value
2019-05-05T00:00:55.083Z,55.85
2019-05-05T00:03:44.449Z,55.79
2019-05-05T00:06:15.772Z,55.35
2019-05-05T00:08:47.355Z,56.07
2019-05-05T00:11:37.200Z,55.73
2019-05-05T00:14:39.832Z,56.17
2019-05-05T00:17:18.351Z,56.22
2019-05-05T00:19:49.734Z,55.63
2019-05-05T00:22:21.384Z,55.87
2019-05-05T00:24:54.640Z,56.24
2019-05-05T00:27:26.524Z,56.49
2019-05-05T00:29:59.446Z,57.02
2019-05-05T00:32:31.172Z,57.41
2019-05-05T00:35:04.339Z,57.29
2019-05-05T00:37:36.279Z,57.70
2019-05-05T00:40:07.909Z,58.16
2019-05-05T00:42:39.501Z,57.76
2019-05-05T00:45:11.476Z,58.02
2019-05-05T00:48:07.808Z,59.14
2019-05-05T00:50:39.610Z,60.41
2019-05-05T00:53:11.319Z,61.21
2019-05-05T00:55:44.255Z,60.96
2019-05-05T00:58:15.946Z,62.44
2019-05-05T01:00:54.853Z,63.50
2019-05-05T01:03:27.876Z,63.99
2019-05-05T01:06:15.165Z,64.69
2019-05-05T01:08:47.222Z,65.01
2019-05-05T01:11:19.408Z,63.73
2019-05-05T01:13:51.104Z,63.78
2019-05-05T01:16:24.770Z,64.77
2019-05-05T01:18:56.283Z,63.94
2019-05-05T01:21:28.041Z,63.53
2019-05-05T01:23:59.800Z,63.59
2019-05-05T01:26:31.339Z,64.60
2019-05-05T01:29:05.289Z,64.08
2019-05-05T01:31:38.601Z,64.33
2019-05-05T01:34:26.235Z,64.10
2019-05-05T01:37:06.337Z,64.42
2019-05-05T01:39:47.143Z,65.06
2019-05-05T01:42:19.140Z,65.16
2019-05-05T01:44:50.809Z,64.24
2019-05-05T01:47:22.440Z,63.80
2019-05-05T01:49:54.543Z,64.81
2019-05-05T01:52:26.350Z,65.42
2019-05-05T01:54:58.074Z,64.64
2019-05-05T01:57:30.079Z,64.32
2019-05-05T02:00:04.247Z,63.43
2019-05-05T02:02:36.509Z,63.31
2019-05-05T02:05:09.358Z,63.43
2019-05-05T02:07:41.012Z,64.00
2019-05-05T02:10:15.274Z,63.70
2019-05-05T02:12:46.919Z,63.68
2019-05-05T02:15:18.935Z,64.90
2019-05-05T02:17:51.600Z,64.63
2019-05-05T02:21:01.364Z,65.38
2019-05-05T02:23:35.131Z,64.84
2019-05-05T02:26:08.150Z,65.34
2019-05-05T02:28:59.165Z,64.16
2019-05-05T02:31:55.051Z,64.58
2019-05-05T02:34:27.467Z,65.59
2019-05-05T02:37:00.233Z,66.83
2019-05-05T02:39:35.232Z,67.12
2019-05-05T02:42:05.944Z,68.40
2019-05-05T02:44:38.308Z,68.48
2019-05-05T02:47:30.418Z,68.90
2019-05-05T02:50:05.452Z,69.35
2019-05-05T02:52:39.795Z,69.75
2019-05-05T02:55:14.666Z,70.27
2019-05-05T02:57:46.921Z,70.33
2019-05-05T03:00:37.468Z,70.38
2019-05-05T03:03:09.867Z,70.58
2019-05-05T03:05:43.479Z,70.23
2019-05-05T03:08:15.401Z,71.09
2019-05-05T03:10:47.263Z,70.93
2019-05-05T03:13:20.162Z,71.53
2019-05-05T03:15:55.232Z,71.74
2019-05-05T03:18:27.201Z,72.97
2019-05-05T03:21:04.475Z,72.78
2019-05-05T03:23:33.467Z,72.41
2019-05-05T03:26:05.608Z,71.96
2019-05-05T03:28:44.407Z,72.39
2019-05-05T03:31:16.428Z,72.47
2019-05-05T03:33:48.049Z,72.15
2019-05-05T03:36:20.392Z,72.72
2019-05-05T03:38:54.132Z,72.18
2019-05-05T03:41:34.470Z,72.14
2019-05-05T03:44:14.957Z,72.25
2019-05-05T03:46:47.005Z,72.45
2019-05-05T03:49:19.225Z,72.33
2019-05-05T03:51:51.113Z,72.33
2019-05-05T03:54:23.861Z,71.38
2019-05-05T03:57:11.431Z,72.36
2019-05-05T03:59:44.430Z,72.13
2019-05-05T04:02:34.141Z,71.83
2019-05-05T04:05:25.416Z,71.86
2019-05-05T04:07:57.455Z,72.17
2019-05-05T04:10:29.389Z,72.25
2019-05-05T04:13:04.678Z,73.05
2019-05-05T04:15:37.892Z,72.84
2019-05-05T04:18:25.501Z,73.39
2019-05-05T04:20:57.238Z,74.21
2019-05-05T04:23:29.158Z,74.47
2019-05-05T04:26:00.954Z,74.64
2019-05-05T04:28:34.543Z,75.02
2019-05-05T04:31:06.337Z,75.76
2019-05-05T04:33:38.104Z,76.48
2019-05-05T04:36:09.902Z,76.93
2019-05-05T04:38:41.338Z,76.34
2019-05-05T04:41:14.047Z,76.45
2019-05-05T04:43:45.821Z,76.46
2019-05-05T04:46:17.304Z,76.99
2019-05-05T04:49:10.763Z,76.62
2019-05-05T04:51:50.089Z,77.46
2019-05-05T04:54:24.454Z,77.39
2019-05-05T04:56:55.917Z,77.49
2019-05-05T04:59:27.426Z,76.91
2019-05-05T05:02:03.994Z,77.23
2019-05-05T05:04:54.581Z,77.34
2019-05-05T05:07:27.546Z,77.50
2019-05-05T05:09:59.204Z,77.35
2019-05-05T05:12:34.179Z,77.00
2019-05-05T05:15:06.273Z,77.22
2019-05-05T05:17:44.498Z,76.09
2019-05-05T05:20:16.104Z,76.12
2019-05-05T05:22:47.898Z,77.03
2019-05-05T05:25:19.262Z,76.56
2019-05-05T05:27:50.823Z,76.46
2019-05-05T05:30:24.272Z,76.74
2019-05-05T05:32:56.027Z,76.52
2019-05-05T05:35:27.735Z,76.47
2019-05-05T05:37:59.453Z,76.60
2019-05-05T05:40:47.793Z,75.75
2019-05-05T05:43:25.366Z,76.25
2019-05-05T05:46:04.621Z,75.19
2019-05-05T05:48:43.464Z,75.19
2019-05-05T05:51:19.486Z,75.17
2019-05-05T05:53:51.263Z,74.13
2019-05-05T05:56:24.972Z,74.17
2019-05-05T05:58:57.801Z,73.86
2019-05-05T06:01:29.296Z,72.77
2019-05-05T06:04:00.955Z,72.37
2019-05-05T06:06:34.510Z,72.83
2019-05-05T06:09:06.885Z,73.01
2019-05-05T06:11:38.864Z,74.01
2019-05-05T06:14:10.834Z,73.89
2019-05-05T06:16:44.504Z,73.75
2019-05-05T06:19:16.101Z,74.11
2019-05-05T06:21:49.042Z,74.53
2019-05-05T06:24:20.845Z,74.67
2019-05-05T06:26:54.716Z,73.12
2019-05-05T06:29:26.636Z,73.45
2019-05-05T06:31:58.101Z,73.94
2019-05-05T06:34:29.716Z,74.20
2019-05-05T06:37:01.500Z,74.98
2019-05-05T06:39:33.594Z,74.49
2019-05-05T06:42:24.551Z,73.62
2019-05-05T06:45:04.140Z,73.45
2019-05-05T06:47:39.860Z,73.98
2019-05-05T06:50:11.619Z,72.65
2019-05-05T06:52:46.535Z,72.42
2019-05-05T06:55:16.908Z,71.88
2019-05-05T06:57:48.727Z,71.56
2019-05-05T07:00:20.237Z,71.70
2019-05-05T07:02:53.928Z,71.23
2019-05-05T07:05:25.553Z,71.42
2019-05-05T07:07:57.428Z,71.84
2019-05-05T07:10:33.724Z,71.73
2019-05-05T07:13:05.264Z,71.04
2019-05-05T07:15:37.053Z,71.45
2019-05-05T07:18:09.005Z,71.47
2019-05-05T07:20:40.682Z,71.22
2019-05-05T07:23:14.515Z,71.06
2019-05-05T07:25:46.414Z,70.61
2019-05-05T07:28:18.106Z,70.50
2019-05-05T07:30:49.665Z,70.87
2019-05-05T07:33:21.456Z,70.22
2019-05-05T07:36:15.113Z,70.37
2019-05-05T07:38:46.380Z,70.67
2019-05-05T07:41:19.297Z,70.42
2019-05-05T07:43:51.084Z,70.83
2019-05-05T07:46:24.142Z,70.56
2019-05-05T07:48:56.024Z,70.93
2019-05-05T07:51:27.951Z,70.38
2019-05-05T07:53:59.633Z,69.33
2019-05-05T07:56:31.354Z,69.78
2019-05-05T07:59:03.834Z,67.82
2019-05-05T08:01:35.692Z,69.10
2019-05-05T08:04:07.529Z,67.94
2019-05-05T08:06:39.029Z,68.21
2019-05-05T08:09:10.820Z,67.79
2019-05-05T08:11:44.484Z,68.25
2019-05-05T08:14:16.249Z,68.38
2019-05-05T08:17:14.550Z,68.34
2019-05-05T08:19:54.342Z,68.48
2019-05-05T08:22:26.256Z,68.01
2019-05-05T08:25:15.585Z,68.68
2019-05-05T08:27:53.692Z,68.69
2019-05-05T08:30:33.527Z,68.10
2019-05-05T08:33:05.562Z,68.19
2019-05-05T08:35:37.268Z,68.03
2019-05-05T08:38:09.079Z,69.08
2019-05-05T08:40:40.912Z,67.55
2019-05-05T08:43:13.866Z,67.38
2019-05-05T08:45:44.746Z,67.16
2019-05-05T08:48:16.178Z,67.32
2019-05-05T08:50:48.896Z,67.10
2019-05-05T08:53:20.795Z,67.10
2019-05-05T08:55:54.546Z,66.79
2019-05-05T08:58:25.996Z,66.31
2019-05-05T09:00:57.661Z,66.10
2019-05-05T09:03:29.492Z,66.76
2019-05-05T09:06:00.912Z,64.81
2019-05-05T09:08:34.557Z,64.60
2019-05-05T09:11:05.006Z,64.78
2019-05-05T09:13:36.608Z,63.48
2019-05-05T09:16:08.284Z,62.91
2019-05-05T09:18:58.175Z,62.45
2019-05-05T09:21:29.805Z,60.12
2019-05-05T09:24:18.181Z,59.94
2019-05-05T09:26:58.378Z,58.95
2019-05-05T09:29:34.833Z,58.94
2019-05-05T09:32:06.783Z,58.77
2019-05-05T09:34:38.329Z,58.44
2019-05-05T09:37:10.393Z,58.67
2019-05-05T09:39:43.685Z,58.81
2019-05-05T09:42:15.462Z,59.37
2019-05-05T09:44:47.088Z,58.64
2019-05-05T09:47:18.755Z,58.75
2019-05-05T09:49:50.639Z,58.86
2019-05-05T09:52:24.284Z,59.81
2019-05-05T09:54:55.695Z,59.93
2019-05-05T09:57:27.507Z,59.68
2019-05-05T10:00:13.831Z,59.98
2019-05-05T10:02:45.030Z,60.02
2019-05-05T10:05:16.855Z,60.40
2019-05-05T10:07:49.191Z,60.78
2019-05-05T10:10:20.951Z,59.95
2019-05-05T10:12:54.883Z,59.97
2019-05-05T10:15:26.113Z,59.83
2019-05-05T10:17:57.935Z,59.89
2019-05-05T10:20:29.536Z,59.81
2019-05-05T10:23:01.467Z,60.32
2019-05-05T10:25:53.968Z,60.00
2019-05-05T10:28:25.924Z,59.26
2019-05-05T10:30:57.605Z,58.39
2019-05-05T10:33:29.908Z,56.92
2019-05-05T10:36:01.559Z,56.61
2019-05-05T10:38:34.397Z,56.53
2019-05-05T10:41:06.421Z,56.57
2019-05-05T10:43:38.547Z,55.95
2019-05-05T10:46:10.234Z,57.32
2019-05-05T10:48:41.791Z,56.34
2019-05-05T10:51:13.347Z,56.07
2019-05-05T10:53:45.213Z,56.83
2019-05-05T10:56:17.408Z,55.02
2019-05-05T10:58:49.088Z,54.86
2019-05-05T11:01:20.790Z,54.01
2019-05-05T11:03:52.588Z,53.69
2019-05-05T11:06:24.392Z,53.73
2019-05-05T11:08:56.012Z,53.56
2019-05-05T11:11:27.761Z,55.56
2019-05-05T11:14:00.053Z,54.77
2019-05-05T11:16:31.879Z,54.67
2019-05-05T11:19:04.348Z,52.58
2019-05-05T11:21:36.152Z,53.33
2019-05-05T11:24:08.039Z,52.50
2019-05-05T11:26:39.919Z,52.37
2019-05-05T11:29:13.561Z,52.77
2019-05-05T11:31:45.654Z,53.33
2019-05-05T11:34:24.773Z,53.75
2019-05-05T11:37:11.442Z,53.68
2019-05-05T11:39:44.531Z,54.77
2019-05-05T11:42:17.270Z,56.01
2019-05-05T11:44:48.800Z,55.17
2019-05-05T11:47:21.287Z,52.21
2019-05-05T11:49:56.197Z,52.09
2019-05-05T11:52:26.417Z,50.22
2019-05-05T11:55:08.995Z,49.97
2019-05-05T11:57:33.442Z,51.33
2019-05-05T12:00:05.434Z,51.12
2019-05-05T12:02:37.351Z,50.88
2019-05-05T12:05:09.077Z,50.19
2019-05-05T12:07:40.750Z,49.30
2019-05-05T12:10:31.637Z,48.84
2019-05-05T12:13:04.431Z,50.41
2019-05-05T12:15:36.389Z,52.56
2019-05-05T12:18:08.109Z,53.77
2019-05-05T12:20:40.539Z,54.28
2019-05-05T12:23:12.322Z,54.58
2019-05-05T12:25:59.643Z,55.11
2019-05-05T12:28:39.142Z,55.55
2019-05-05T12:31:15.871Z,54.09
2019-05-05T12:33:47.623Z,54.94
2019-05-05T12:36:20.363Z,55.38
2019-05-05T12:38:54.408Z,53.72
2019-05-05T12:41:25.575Z,53.12
2019-05-05T12:43:57.262Z,53.15
2019-05-05T12:46:50.640Z,52.80
2019-05-05T12:49:25.256Z,53.67
2019-05-05T12:51:55.840Z,53.58
2019-05-05T12:54:27.454Z,53.20
2019-05-05T12:56:59.298Z,52.49
2019-05-05T12:59:31.144Z,51.09
2019-05-05T13:02:03.801Z,51.91
2019-05-05T13:04:35.728Z,52.18
2019-05-05T13:07:08.281Z,51.95
2019-05-05T13:09:40.228Z,51.81
2019-05-05T13:12:12.095Z,51.27
2019-05-05T13:14:44.259Z,51.71
2019-05-05T13:17:15.861Z,51.06
2019-05-05T13:19:55.670Z,51.06
2019-05-05T13:23:01.616Z,48.86
2019-05-05T13:25:58.469Z,49.73
2019-05-05T13:28:28.434Z,50.11
2019-05-05T13:31:00.037Z,48.20
2019-05-05T13:33:33.608Z,46.54
2019-05-05T13:36:05.107Z,44.42
2019-05-05T13:38:36.759Z,45.44
2019-05-05T13:41:08.424Z,42.43
2019-05-05T13:43:40.397Z,42.21
2019-05-05T13:46:36.927Z,40.79
2019-05-05T13:49:46.358Z,40.75
2019-05-05T13:52:18.272Z,40.64
2019-05-05T13:54:50.227Z,40.91
2019-05-05T13:57:21.989Z,42.40
2019-05-05T13:59:54.600Z,43.72
2019-05-05T14:02:26.590Z,42.29
2019-05-05T14:04:58.512Z,44.31
2019-05-05T14:07:30.352Z,44.69
2019-05-05T14:10:03.788Z,44.63
2019-05-05T14:12:36.483Z,44.24
2019-05-05T14:15:09.796Z,44.54
2019-05-05T14:17:43.943Z,43.13
2019-05-05T14:20:16.328Z,44.49
2019-05-05T14:22:47.944Z,44.33
2019-05-05T14:25:24.695Z,42.58
2019-05-05T14:27:56.337Z,41.95
2019-05-05T14:30:49.862Z,42.94
2019-05-05T14:33:25.858Z,43.48
2019-05-05T14:36:13.686Z,43.19
2019-05-05T14:38:51.045Z,42.40
2019-05-05T14:41:22.640Z,43.27
2019-05-05T14:43:56.563Z,44.74
2019-05-05T14:46:28.263Z,45.38
2019-05-05T14:48:59.946Z,46.76
2019-05-05T14:51:34.021Z,47.77
2019-05-05T14:54:10.814Z,48.24
2019-05-05T14:56:44.062Z,49.05
2019-05-05T14:59:16.058Z,49.79
2019-05-05T15:01:47.961Z,50.44
2019-05-05T15:04:20.853Z,51.12
2019-05-05T15:07:30.094Z,51.37
2019-05-05T15:10:36.569Z,51.81
2019-05-05T15:13:10.074Z,51.95
2019-05-05T15:15:42.071Z,51.90
2019-05-05T15:18:14.653Z,52.41
2019-05-05T15:20:46.629Z,52.85
2019-05-05T15:23:18.484Z,53.22
2019-05-05T15:25:50.215Z,53.08
2019-05-05T15:28:21.931Z,53.28
2019-05-05T15:30:54.504Z,53.61
2019-05-05T15:33:26.587Z,53.40
2019-05-05T15:35:58.408Z,53.37
2019-05-05T15:38:30.325Z,53.22
2019-05-05T15:41:03.880Z,53.46
2019-05-05T15:43:35.424Z,54.21
2019-05-05T15:46:07.347Z,53.96
2019-05-05T15:48:39.276Z,53.92
2019-05-05T15:51:10.931Z,54.10
2019-05-05T15:53:42.487Z,54.50
2019-05-05T15:56:14.399Z,55.34
2019-05-05T15:58:46.242Z,56.64
2019-05-05T16:01:18.127Z,59.23
2019-05-05T16:03:49.757Z,61.89
2019-05-05T16:06:23.636Z,64.62
2019-05-05T16:08:56.672Z,66.58
2019-05-05T16:11:28.841Z,68.27
2019-05-05T16:14:01.213Z,70.01
2019-05-05T16:16:57.912Z,71.48
2019-05-05T16:19:55.082Z,71.80
2019-05-05T16:22:46.183Z,73.48
2019-05-05T16:25:17.851Z,73.25
2019-05-05T16:27:49.723Z,74.71
2019-05-05T16:30:23.562Z,75.59
2019-05-05T16:32:55.573Z,75.60
2019-05-05T16:35:27.396Z,75.73
2019-05-05T16:37:58.944Z,76.25
2019-05-05T16:40:30.599Z,76.69
2019-05-05T16:43:01.999Z,76.49
2019-05-05T16:45:34.138Z,76.28
2019-05-05T16:48:05.872Z,76.11
2019-05-05T16:50:37.724Z,75.31
2019-05-05T16:53:11.078Z,75.64
2019-05-05T16:55:50.401Z,74.46
2019-05-05T16:58:23.973Z,75.38
2019-05-05T17:00:55.850Z,77.65
2019-05-05T17:03:27.718Z,75.69
2019-05-05T17:05:59.657Z,76.89
2019-05-05T17:08:31.362Z,76.73
2019-05-05T17:11:03.197Z,77.08
2019-05-05T17:13:44.042Z,76.45
2019-05-05T17:16:28.882Z,76.24
2019-05-05T17:19:19.753Z,75.63
2019-05-05T17:22:09.214Z,75.15
2019-05-05T17:24:40.911Z,74.55
2019-05-05T17:27:13.911Z,75.25
2019-05-05T17:29:44.755Z,75.66
2019-05-05T17:32:16.194Z,74.63
2019-05-05T17:34:47.851Z,73.71
2019-05-05T17:37:19.865Z,74.50
2019-05-05T17:39:57.979Z,74.70
2019-05-05T17:42:38.911Z,74.81
2019-05-05T17:45:23.921Z,75.38
2019-05-05T17:48:09.633Z,75.06
2019-05-05T17:50:59.179Z,73.55
2019-05-05T17:53:48.857Z,75.00
2019-05-05T17:56:20.873Z,73.99
2019-05-05T17:58:53.802Z,73.94
2019-05-05T18:01:25.735Z,73.88
2019-05-05T18:03:57.480Z,73.72
2019-05-05T18:06:39.750Z,73.56
2019-05-05T18:09:39.238Z,74.21
2019-05-05T18:12:29.850Z,74.58
2019-05-05T18:15:04.595Z,74.66
2019-05-05T18:17:37.132Z,74.11
2019-05-05T18:20:09.099Z,74.29
2019-05-05T18:22:40.444Z,74.52
2019-05-05T18:25:11.962Z,74.83
2019-05-05T18:27:43.932Z,74.31
2019-05-05T18:30:16.173Z,74.39
2019-05-05T18:32:48.378Z,75.34
2019-05-05T18:35:20.162Z,74.38
2019-05-05T18:37:54.327Z,75.02
2019-05-05T18:40:25.799Z,75.50
2019-05-05T18:42:59.116Z,74.94
2019-05-05T18:45:30.542Z,75.22
2019-05-05T18:48:04.399Z,74.67
2019-05-05T18:50:36.162Z,74.34
2019-05-05T18:53:08.069Z,74.72
2019-05-05T18:55:39.522Z,74.85
2019-05-05T18:58:12.247Z,75.23
2019-05-05T19:01:03.802Z,75.58
2019-05-05T19:03:54.510Z,76.15
2019-05-05T19:06:44.045Z,76.59
2019-05-05T19:09:19.999Z,75.74
2019-05-05T19:11:52.020Z,75.68
2019-05-05T19:14:24.335Z,76.37
2019-05-05T19:16:56.174Z,76.28
2019-05-05T19:19:27.742Z,76.59
2019-05-05T19:22:05.523Z,77.24
2019-05-05T19:24:37.104Z,77.46
2019-05-05T19:27:09.241Z,77.48
2019-05-05T19:29:41.104Z,77.88
2019-05-05T19:32:13.094Z,78.05
2019-05-05T19:34:45.034Z,78.07
2019-05-05T19:37:16.685Z,78.09
2019-05-05T19:39:48.404Z,77.67
2019-05-05T19:42:20.072Z,77.84
2019-05-05T19:44:51.768Z,77.72
2019-05-05T19:47:24.635Z,78.30
2019-05-05T19:50:14.411Z,77.88
2019-05-05T19:52:47.214Z,77.31
2019-05-05T19:55:19.049Z,76.75
2019-05-05T19:57:51.160Z,77.12
2019-05-05T20:00:23.433Z,77.75
2019-05-05T20:03:04.319Z,77.46
2019-05-05T20:05:30.248Z,78.25
2019-05-05T20:08:03.909Z,77.43
2019-05-05T20:10:35.522Z,77.97
2019-05-05T20:13:07.079Z,77.05
2019-05-05T20:15:48.152Z,77.61
2019-05-05T20:18:21.069Z,78.44
2019-05-05T20:21:03.623Z,77.87
2019-05-05T20:23:24.901Z,78.21
2019-05-05T20:25:56.872Z,77.93
2019-05-05T20:28:28.713Z,77.91
2019-05-05T20:31:00.626Z,77.38
2019-05-05T20:33:41.480Z,77.15
2019-05-05T20:36:16.424Z,76.77
2019-05-05T20:38:50.249Z,75.58
2019-05-05T20:41:24.918Z,75.22
2019-05-05T20:43:56.935Z,75.42
2019-05-05T20:46:28.526Z,75.59
2019-05-05T20:49:00.130Z,75.02
2019-05-05T20:51:33.841Z,73.98
2019-05-05T20:54:05.366Z,74.01
2019-05-05T20:56:37.072Z,74.22
2019-05-05T20:59:08.905Z,74.40
2019-05-05T21:01:40.725Z,73.76
2019-05-05T21:04:14.096Z,73.99
2019-05-05T21:06:46.937Z,73.93
2019-05-05T21:09:18.394Z,74.12
2019-05-05T21:11:50.165Z,74.20
2019-05-05T21:14:32.008Z,73.59
2019-05-05T21:16:56.563Z,72.69
2019-05-05T21:19:28.294Z,73.35
2019-05-05T21:22:04.103Z,73.90
2019-05-05T21:24:35.853Z,74.70
2019-05-05T21:27:07.597Z,74.24
2019-05-05T21:29:42.234Z,75.04
2019-05-05T21:32:13.792Z,75.66
2019-05-05T21:34:45.636Z,75.55
2019-05-05T21:37:17.376Z,74.48
2019-05-05T21:39:49.394Z,73.82
2019-05-05T21:42:21.320Z,72.55
2019-05-05T21:44:53.888Z,74.85
2019-05-05T21:47:25.808Z,75.30
2019-05-05T21:49:57.296Z,74.26
2019-05-05T21:52:41.282Z,74.16
2019-05-05T21:55:33.894Z,74.15
2019-05-05T21:58:18.412Z,73.97
2019-05-05T22:01:04.670Z,74.16
2019-05-05T22:03:38.543Z,73.41
2019-05-05T22:06:10.238Z,73.51
2019-05-05T22:08:41.978Z,73.51
2019-05-05T22:11:14.668Z,72.97
2019-05-05T22:13:47.027Z,73.06
2019-05-05T22:16:18.914Z,73.65
2019-05-05T22:18:50.607Z,73.98
2019-05-05T22:21:31.412Z,73.13
2019-05-05T22:24:19.728Z,72.82
2019-05-05T22:26:51.430Z,73.15
2019-05-05T22:29:24.950Z,73.30
2019-05-05T22:31:56.864Z,72.99
2019-05-05T22:34:29.143Z,73.05
2019-05-05T22:37:00.962Z,73.24
2019-05-05T22:39:33.806Z,73.15
2019-05-05T22:42:05.490Z,73.57
2019-05-05T22:44:37.263Z,73.82
2019-05-05T22:47:09.138Z,73.68
2019-05-05T22:49:41.180Z,74.29
2019-05-05T22:52:14.458Z,73.89
2019-05-05T22:54:46.051Z,74.17
2019-05-05T22:57:17.868Z,74.48
2019-05-05T22:59:49.729Z,74.88
2019-05-05T23:02:24.461Z,74.26
2019-05-05T23:05:11.923Z,74.87
2019-05-05T23:07:43.901Z,74.75
2019-05-05T23:10:16.090Z,74.49
2019-05-05T23:12:47.729Z,74.48
2019-05-05T23:15:19.751Z,74.84
2019-05-05T23:18:06.682Z,74.51
2019-05-05T23:21:19.489Z,74.20
2019-05-05T23:24:05.407Z,74.14
2019-05-05T23:26:38.731Z,73.77
2019-05-05T23:29:09.175Z,74.76
2019-05-05T23:31:40.798Z,74.37
2019-05-05T23:34:14.567Z,74.58
2019-05-05T23:36:46.159Z,74.71
2019-05-05T23:39:17.903Z,74.64
2019-05-05T23:41:49.645Z,74.74
2019-05-05T23:44:21.456Z,73.78
2019-05-05T23:46:53.887Z,73.51
2019-05-05T23:49:25.640Z,74.29
2019-05-05T23:51:57.558Z,74.37
2019-05-05T23:54:29.144Z,76.53
2019-05-05T23:57:00.843Z,76.09
2019-05-05T23:59:32.509Z,76.13
